sensor_id;sensor_type;location;lat;lon;timestamp;pressure;altitude;pressure_sealevel;temperature;humidity
9335;BME280;4706;41.844;26.082;2022-07-22T00:01:34;100672.97;;;25.74;59.32
9335;BME280;4706;41.844;26.082;2022-07-22T00:03:59;100676.22;;;25.83;58.99
9335;BME280;4706;41.844;26.082;2022-07-22T00:06:26;100685.09;;;26.03;58.58
9335;BME280;4706;41.844;26.082;2022-07-22T00:08:52;100686.28;;;26.02;58.63
9335;BME280;4706;41.844;26.082;2022-07-22T00:11:18;100688.28;;;25.98;59.05
9335;BME280;4706;41.844;26.082;2022-07-22T00:13:43;100681.44;;;25.95;59.22
9335;BME280;4706;41.844;26.082;2022-07-22T00:16:10;100687.91;;;26.03;58.87
9335;BME280;4706;41.844;26.082;2022-07-22T00:18:36;100689.91;;;26.06;59.05
9335;BME280;4706;41.844;26.082;2022-07-22T00:21:02;100687.13;;;25.91;59.99
9335;BME280;4706;41.844;26.082;2022-07-22T00:23:28;100694.34;;;25.78;60.46
9335;BME280;4706;41.844;26.082;2022-07-22T00:25:54;100685.47;;;25.83;60.72
9335;BME280;4706;41.844;26.082;2022-07-22T00:28:20;100680.22;;;25.67;61.33
9335;BME280;4706;41.844;26.082;2022-07-22T00:30:45;100689.91;;;25.99;60.35
9335;BME280;4706;41.844;26.082;2022-07-22T00:33:11;100695.94;;;26.11;59.90
9335;BME280;4706;41.844;26.082;2022-07-22T00:35:36;100693.50;;;26.24;59.66
9335;BME280;4706;41.844;26.082;2022-07-22T00:38:02;100695.53;;;26.13;60.44
9335;BME280;4706;41.844;26.082;2022-07-22T00:40:28;100698.34;;;26.09;60.38
9335;BME280;4706;41.844;26.082;2022-07-22T00:42:53;100697.97;;;26.04;60.57
9335;BME280;4706;41.844;26.082;2022-07-22T00:45:19;100703.19;;;26.05;61.11
9335;BME280;4706;41.844;26.082;2022-07-22T00:47:45;100703.97;;;26.20;60.75
9335;BME280;4706;41.844;26.082;2022-07-22T00:50:11;100700.34;;;26.27;60.67
9335;BME280;4706;41.844;26.082;2022-07-22T00:52:37;100701.56;;;26.26;60.76
9335;BME280;4706;41.844;26.082;2022-07-22T00:55:04;100688.72;;;26.14;60.75
9335;BME280;4706;41.844;26.082;2022-07-22T00:57:30;100689.50;;;26.07;61.12
9335;BME280;4706;41.844;26.082;2022-07-22T00:59:56;100677.44;;;26.07;60.79
9335;BME280;4706;41.844;26.082;2022-07-22T01:02:22;100698.34;;;26.02;60.15
9335;BME280;4706;41.844;26.082;2022-07-22T01:04:48;100704.41;;;26.04;60.09
9335;BME280;4706;41.844;26.082;2022-07-22T01:07:13;100691.53;;;26.14;58.44
9335;BME280;4706;41.844;26.082;2022-07-22T01:09:43;100682.25;;;26.06;58.06
9335;BME280;4706;41.844;26.082;2022-07-22T01:12:09;100695.94;;;26.01;58.22
9335;BME280;4706;41.844;26.082;2022-07-22T01:14:34;100686.28;;;26.02;57.84
9335;BME280;4706;41.844;26.082;2022-07-22T01:17:00;100712.84;;;26.22;57.22
9335;BME280;4706;41.844;26.082;2022-07-22T01:19:26;100701.16;;;26.20;57.13
9335;BME280;4706;41.844;26.082;2022-07-22T01:21:51;100714.09;;;26.07;57.74
9335;BME280;4706;41.844;26.082;2022-07-22T01:24:17;100716.91;;;26.03;57.96
9335;BME280;4706;41.844;26.082;2022-07-22T01:26:42;100714.47;;;26.20;57.53
9335;BME280;4706;41.844;26.082;2022-07-22T01:29:08;100714.47;;;26.23;57.29
9335;BME280;4706;41.844;26.082;2022-07-22T01:31:34;100701.16;;;26.27;56.90
9335;BME280;4706;41.844;26.082;2022-07-22T01:34:00;100701.97;;;26.28;56.42
9335;BME280;4706;41.844;26.082;2022-07-22T01:36:25;100711.63;;;26.30;56.12
9335;BME280;4706;41.844;26.082;2022-07-22T01:38:51;100711.22;;;26.28;55.69
9335;BME280;4706;41.844;26.082;2022-07-22T01:41:17;100704.00;;;26.06;56.43
9335;BME280;4706;41.844;26.082;2022-07-22T01:43:42;100696.38;;;25.99;56.54
9335;BME280;4706;41.844;26.082;2022-07-22T01:46:08;100694.34;;;26.03;56.39
9335;BME280;4706;41.844;26.082;2022-07-22T01:48:33;100704.00;;;25.99;56.75
9335;BME280;4706;41.844;26.082;2022-07-22T01:50:59;100700.00;;;25.89;57.17
9335;BME280;4706;41.844;26.082;2022-07-22T01:53:25;100683.88;;;25.79;57.41
9335;BME280;4706;41.844;26.082;2022-07-22T01:55:51;100689.09;;;25.70;57.81
9335;BME280;4706;41.844;26.082;2022-07-22T01:58:17;100687.44;;;25.47;58.62
9335;BME280;4706;41.844;26.082;2022-07-22T02:00:42;100693.03;;;25.26;59.26
9335;BME280;4706;41.844;26.082;2022-07-22T02:03:08;100699.47;;;25.26;59.58
9335;BME280;4706;41.844;26.082;2022-07-22T02:05:36;100705.91;;;25.27;59.71
9335;BME280;4706;41.844;26.082;2022-07-22T02:08:04;100695.38;;;25.09;60.42
9335;BME280;4706;41.844;26.082;2022-07-22T02:10:30;100688.94;;;25.05;60.38
9335;BME280;4706;41.844;26.082;2022-07-22T02:12:57;100697.75;;;25.04;60.89
9335;BME280;4706;41.844;26.082;2022-07-22T02:15:23;100690.06;;;24.86;61.44
9335;BME280;4706;41.844;26.082;2022-07-22T02:17:48;100690.88;;;24.90;61.18
9335;BME280;4706;41.844;26.082;2022-07-22T02:20:14;100684.41;;;24.83;61.60
9335;BME280;4706;41.844;26.082;2022-07-22T02:22:40;100683.22;;;24.87;61.33
9335;BME280;4706;41.844;26.082;2022-07-22T02:25:06;100688.84;;;24.84;61.68
9335;BME280;4706;41.844;26.082;2022-07-22T02:27:32;100690.91;;;24.94;61.48
9335;BME280;4706;41.844;26.082;2022-07-22T02:29:58;100690.09;;;25.01;61.05
9335;BME280;4706;41.844;26.082;2022-07-22T02:32:24;100684.06;;;24.99;61.12
9335;BME280;4706;41.844;26.082;2022-07-22T02:34:49;100691.72;;;24.98;61.27
9335;BME280;4706;41.844;26.082;2022-07-22T02:37:15;100694.88;;;24.89;61.39
9335;BME280;4706;41.844;26.082;2022-07-22T02:39:41;100688.81;;;24.80;61.89
9335;BME280;4706;41.844;26.082;2022-07-22T02:42:07;100685.22;;;24.80;61.67
9335;BME280;4706;41.844;26.082;2022-07-22T02:44:32;100683.97;;;24.74;62.20
9335;BME280;4706;41.844;26.082;2022-07-22T02:46:57;100686.00;;;24.80;61.80
9335;BME280;4706;41.844;26.082;2022-07-22T02:49:23;100671.91;;;24.73;62.21
9335;BME280;4706;41.844;26.082;2022-07-22T02:51:48;100688.81;;;24.80;62.08
9335;BME280;4706;41.844;26.082;2022-07-22T02:54:14;100693.66;;;24.80;62.18
9335;BME280;4706;41.844;26.082;2022-07-22T02:56:39;100693.66;;;24.80;62.08
9335;BME280;4706;41.844;26.082;2022-07-22T02:59:05;100693.63;;;24.76;62.12
9335;BME280;4706;41.844;26.082;2022-07-22T03:01:31;100689.53;;;24.63;62.84
9335;BME280;4706;41.844;26.082;2022-07-22T03:03:56;100683.44;;;24.50;62.85
9335;BME280;4706;41.844;26.082;2022-07-22T03:06:22;100692.28;;;24.45;63.30
9335;BME280;4706;41.844;26.082;2022-07-22T03:08:47;100689.72;;;24.29;63.33
9335;BME280;4706;41.844;26.082;2022-07-22T03:11:13;100697.75;;;24.27;63.87
9335;BME280;4706;41.844;26.082;2022-07-22T03:13:39;100693.66;;;24.17;64.10
9335;BME280;4706;41.844;26.082;2022-07-22T03:16:04;100670.69;;;24.05;64.32
9335;BME280;4706;41.844;26.082;2022-07-22T03:18:30;100691.56;;;24.04;64.65
9335;BME280;4706;41.844;26.082;2022-07-22T03:20:55;100703.13;;;23.95;65.19
9335;BME280;4706;41.844;26.082;2022-07-22T03:23:21;100709.19;;;24.01;65.20
9335;BME280;4706;41.844;26.082;2022-07-22T03:25:47;100693.66;;;24.17;64.48
9335;BME280;4706;41.844;26.082;2022-07-22T03:28:13;100704.84;;;24.10;64.95
9335;BME280;4706;41.844;26.082;2022-07-22T03:30:38;100706.19;;;24.27;64.18
9335;BME280;4706;41.844;26.082;2022-07-22T03:33:04;100687.69;;;24.22;64.25
9335;BME280;4706;41.844;26.082;2022-07-22T03:35:30;100698.09;;;24.18;64.90
9335;BME280;4706;41.844;26.082;2022-07-22T03:37:55;100696.41;;;24.10;65.02
9335;BME280;4706;41.844;26.082;2022-07-22T03:40:21;100686.31;;;24.02;65.21
9335;BME280;4706;41.844;26.082;2022-07-22T03:42:47;100703.66;;;24.11;65.14
9335;BME280;4706;41.844;26.082;2022-07-22T03:45:13;100702.84;;;24.14;65.38
9335;BME280;4706;41.844;26.082;2022-07-22T03:47:38;100704.03;;;24.10;65.65
9335;BME280;4706;41.844;26.082;2022-07-22T03:50:04;100708.19;;;24.27;65.33
9335;BME280;4706;41.844;26.082;2022-07-22T03:52:30;100697.91;;;24.49;64.33
9335;BME280;4706;41.844;26.082;2022-07-22T03:54:55;100702.03;;;24.69;63.99
9335;BME280;4706;41.844;26.082;2022-07-22T03:57:21;100711.66;;;24.64;64.77
9335;BME280;4706;41.844;26.082;2022-07-22T03:59:47;100703.22;;;24.64;65.14
9335;BME280;4706;41.844;26.082;2022-07-22T04:02:12;100710.09;;;24.74;64.98
9335;BME280;4706;41.844;26.082;2022-07-22T04:04:38;100703.72;;;24.84;65.08
9335;BME280;4706;41.844;26.082;2022-07-22T04:07:03;100711.44;;;25.05;64.74
9335;BME280;4706;41.844;26.082;2022-07-22T04:09:29;100717.50;;;25.11;64.67
9335;BME280;4706;41.844;26.082;2022-07-22T04:11:55;100724.41;;;25.38;64.32
9335;BME280;4706;41.844;26.082;2022-07-22T04:14:21;100716.44;;;25.58;63.44
9335;BME280;4706;41.844;26.082;2022-07-22T04:16:46;100716.47;;;25.73;62.63
9335;BME280;4706;41.844;26.082;2022-07-22T04:19:13;100717.69;;;25.79;62.74
9335;BME280;4706;41.844;26.082;2022-07-22T04:21:39;100709.66;;;25.84;62.28
9335;BME280;4706;41.844;26.082;2022-07-22T04:24:05;100716.47;;;26.08;61.50
9335;BME280;4706;41.844;26.082;2022-07-22T04:26:31;100717.28;;;26.30;60.54
9335;BME280;4706;41.844;26.082;2022-07-22T04:28:56;100721.28;;;26.54;59.56
9335;BME280;4706;41.844;26.082;2022-07-22T04:31:22;100727.69;;;26.69;59.26
9335;BME280;4706;41.844;26.082;2022-07-22T04:33:48;100724.44;;;26.78;59.10
9335;BME280;4706;41.844;26.082;2022-07-22T04:36:13;100716.34;;;26.91;58.76
9335;BME280;4706;41.844;26.082;2022-07-22T04:38:39;100723.50;;;27.09;57.79
9335;BME280;4706;41.844;26.082;2022-07-22T04:41:05;100720.28;;;27.11;58.22
9335;BME280;4706;41.844;26.082;2022-07-22T04:43:31;100719.88;;;27.20;59.05
9335;BME280;4706;41.844;26.082;2022-07-22T04:45:56;100719.03;;;27.19;59.29
9335;BME280;4706;41.844;26.082;2022-07-22T04:48:22;100721.75;;;27.41;59.43
9335;BME280;4706;41.844;26.082;2022-07-22T04:50:47;100722.13;;;27.50;59.38
9335;BME280;4706;41.844;26.082;2022-07-22T04:53:14;100718.94;;;27.37;60.44
9335;BME280;4706;41.844;26.082;2022-07-22T04:55:39;100705.78;;;27.09;61.26
9335;BME280;4706;41.844;26.082;2022-07-22T04:58:05;100714.66;;;27.04;61.76
9335;BME280;4706;41.844;26.082;2022-07-22T05:00:30;100711.44;;;27.05;62.22
9335;BME280;4706;41.844;26.082;2022-07-22T05:02:56;100710.63;;;27.12;61.58
9335;BME280;4706;41.844;26.082;2022-07-22T05:05:22;100702.53;;;27.14;61.71
9335;BME280;4706;41.844;26.082;2022-07-22T05:07:48;100706.16;;;27.15;61.42
9335;BME280;4706;41.844;26.082;2022-07-22T05:10:14;100714.63;;;27.15;61.83
9335;BME280;4706;41.844;26.082;2022-07-22T05:12:40;100708.50;;;27.27;61.36
9335;BME280;4706;41.844;26.082;2022-07-22T05:15:06;100709.34;;;27.27;60.93
9335;BME280;4706;41.844;26.082;2022-07-22T05:17:32;100719.31;;;27.46;60.48
9335;BME280;4706;41.844;26.082;2022-07-22T05:19:58;100711.16;;;27.55;60.00
9335;BME280;4706;41.844;26.082;2022-07-22T05:22:26;100714.72;;;27.67;59.68
9335;BME280;4706;41.844;26.082;2022-07-22T05:24:51;100729.22;;;27.72;59.91
9335;BME280;4706;41.844;26.082;2022-07-22T05:27:17;100706.56;;;27.79;59.37
9335;BME280;4706;41.844;26.082;2022-07-22T05:29:42;100709.41;;;27.79;59.32
9335;BME280;4706;41.844;26.082;2022-07-22T05:32:08;100716.19;;;27.89;59.57
9335;BME280;4706;41.844;26.082;2022-07-22T05:34:34;100717.19;;;28.13;58.77
9335;BME280;4706;41.844;26.082;2022-07-22T05:36:59;100718.72;;;28.25;58.85
9335;BME280;4706;41.844;26.082;2022-07-22T05:39:24;100719.31;;;28.47;57.55
9335;BME280;4706;41.844;26.082;2022-07-22T05:41:50;100719.88;;;28.69;57.36
9335;BME280;4706;41.844;26.082;2022-07-22T05:44:15;100730.78;;;28.74;57.28
9335;BME280;4706;41.844;26.082;2022-07-22T05:46:41;100721.75;;;28.83;56.47
9335;BME280;4706;41.844;26.082;2022-07-22T05:49:06;100723.13;;;29.05;55.92
9335;BME280;4706;41.844;26.082;2022-07-22T05:51:32;100729.03;;;29.18;55.47
9335;BME280;4706;41.844;26.082;2022-07-22T05:53:59;100722.91;;;29.23;55.35
9335;BME280;4706;41.844;26.082;2022-07-22T05:56:25;100727.19;;;29.35;54.79
9335;BME280;4706;41.844;26.082;2022-07-22T05:58:50;100721.88;;;29.37;54.38
9335;BME280;4706;41.844;26.082;2022-07-22T06:01:16;100704.94;;;29.33;54.52
9335;BME280;4706;41.844;26.082;2022-07-22T06:03:42;100724.03;;;29.56;54.09
9335;BME280;4706;41.844;26.082;2022-07-22T06:06:08;100722.28;;;29.66;53.43
9335;BME280;4706;41.844;26.082;2022-07-22T06:08:37;100718.13;;;29.74;53.15
9335;BME280;4706;41.844;26.082;2022-07-22T06:11:03;100726.84;;;29.87;53.21
9335;BME280;4706;41.844;26.082;2022-07-22T06:13:28;100731.31;;;29.84;53.07
9335;BME280;4706;41.844;26.082;2022-07-22T06:15:54;100729.00;;;30.03;52.74
9335;BME280;4706;41.844;26.082;2022-07-22T06:18:19;100727.69;;;30.07;52.85
9335;BME280;4706;41.844;26.082;2022-07-22T06:20:45;100725.38;;;30.26;52.17
9335;BME280;4706;41.844;26.082;2022-07-22T06:23:10;100722.66;;;30.42;51.52
9335;BME280;4706;41.844;26.082;2022-07-22T06:25:36;100720.59;;;30.66;50.19
9335;BME280;4706;41.844;26.082;2022-07-22T06:28:02;100722.19;;;30.67;49.72
9335;BME280;4706;41.844;26.082;2022-07-22T06:30:28;100722.88;;;30.75;49.85
9335;BME280;4706;41.844;26.082;2022-07-22T06:32:53;100715.19;;;30.71;50.02
9335;BME280;4706;41.844;26.082;2022-07-22T06:35:19;100716.91;;;30.65;49.72
9335;BME280;4706;41.844;26.082;2022-07-22T06:37:45;100710.81;;;30.67;48.89
9335;BME280;4706;41.844;26.082;2022-07-22T06:40:11;100718.03;;;30.71;49.16
9335;BME280;4706;41.844;26.082;2022-07-22T06:42:37;100713.59;;;30.90;48.29
9335;BME280;4706;41.844;26.082;2022-07-22T06:45:03;100717.19;;;31.14;47.77
9335;BME280;4706;41.844;26.082;2022-07-22T06:47:30;100719.22;;;31.34;46.77
9335;BME280;4706;41.844;26.082;2022-07-22T06:49:57;100711.50;;;31.51;45.82
9335;BME280;4706;41.844;26.082;2022-07-22T06:52:23;100699.34;;;31.66;45.55
9335;BME280;4706;41.844;26.082;2022-07-22T06:54:48;100714.06;;;31.98;44.91
9335;BME280;4706;41.844;26.082;2022-07-22T06:57:14;100712.59;;;32.22;43.59
9335;BME280;4706;41.844;26.082;2022-07-22T06:59:40;100703.31;;;32.34;43.34
9335;BME280;4706;41.844;26.082;2022-07-22T07:02:06;100710.72;;;32.32;43.10
9335;BME280;4706;41.844;26.082;2022-07-22T07:04:31;100718.69;;;32.37;43.27
9335;BME280;4706;41.844;26.082;2022-07-22T07:06:57;100701.34;;;32.48;42.86
9335;BME280;4706;41.844;26.082;2022-07-22T07:09:23;100716.13;;;32.72;42.48
9335;BME280;4706;41.844;26.082;2022-07-22T07:11:48;100704.44;;;32.82;41.28
9335;BME280;4706;41.844;26.082;2022-07-22T07:14:14;100716.03;;;33.04;41.11
9335;BME280;4706;41.844;26.082;2022-07-22T07:16:39;100713.34;;;33.26;40.26
9335;BME280;4706;41.844;26.082;2022-07-22T07:19:05;100723.72;;;33.33;38.23
9335;BME280;4706;41.844;26.082;2022-07-22T07:21:30;100719.84;;;33.40;38.28
9335;BME280;4706;41.844;26.082;2022-07-22T07:23:56;100723.53;;;33.53;37.51
9335;BME280;4706;41.844;26.082;2022-07-22T07:26:22;100716.69;;;33.63;36.97
9335;BME280;4706;41.844;26.082;2022-07-22T07:28:47;100718.13;;;33.93;37.04
9335;BME280;4706;41.844;26.082;2022-07-22T07:31:13;100723.72;;;34.10;35.97
9335;BME280;4706;41.844;26.082;2022-07-22T07:33:38;100718.63;;;34.26;36.38
9335;BME280;4706;41.844;26.082;2022-07-22T07:36:05;100712.81;;;34.30;35.56
9335;BME280;4706;41.844;26.082;2022-07-22T07:38:30;100711.63;;;34.05;35.81
9335;BME280;4706;41.844;26.082;2022-07-22T07:40:56;100698.50;;;33.95;36.33
9335;BME280;4706;41.844;26.082;2022-07-22T07:43:22;100701.13;;;33.90;36.53
9335;BME280;4706;41.844;26.082;2022-07-22T07:45:47;100708.19;;;34.11;35.78
9335;BME280;4706;41.844;26.082;2022-07-22T07:48:13;100697.69;;;34.07;35.81
9335;BME280;4706;41.844;26.082;2022-07-22T07:50:39;100706.25;;;33.95;36.19
9335;BME280;4706;41.844;26.082;2022-07-22T07:53:05;100699.78;;;33.81;36.76
9335;BME280;4706;41.844;26.082;2022-07-22T07:55:31;100704.31;;;33.92;36.29
9335;BME280;4706;41.844;26.082;2022-07-22T07:57:57;100705.78;;;33.96;36.68
9335;BME280;4706;41.844;26.082;2022-07-22T08:00:25;100696.31;;;34.12;36.15
9335;BME280;4706;41.844;26.082;2022-07-22T08:02:55;100688.63;;;34.22;35.74
9335;BME280;4706;41.844;26.082;2022-07-22T08:05:21;100690.97;;;34.36;35.43
9335;BME280;4706;41.844;26.082;2022-07-22T08:07:47;100697.59;;;34.33;36.07
9335;BME280;4706;41.844;26.082;2022-07-22T08:10:13;100689.44;;;34.44;35.48
9335;BME280;4706;41.844;26.082;2022-07-22T08:12:39;100700.44;;;34.46;35.49
9335;BME280;4706;41.844;26.082;2022-07-22T08:15:05;100691.22;;;34.64;35.18
9335;BME280;4706;41.844;26.082;2022-07-22T08:17:32;100683.78;;;34.66;34.90
9335;BME280;4706;41.844;26.082;2022-07-22T08:19:58;100692.88;;;34.52;35.33
9335;BME280;4706;41.844;26.082;2022-07-22T08:22:24;100685.81;;;34.44;35.78
9335;BME280;4706;41.844;26.082;2022-07-22T08:24:50;100685.97;;;34.62;34.93
9335;BME280;4706;41.844;26.082;2022-07-22T08:27:16;100684.56;;;34.89;34.43
9335;BME280;4706;41.844;26.082;2022-07-22T08:29:42;100678.00;;;35.01;34.63
9335;BME280;4706;41.844;26.082;2022-07-22T08:32:07;100682.00;;;35.03;34.85
9335;BME280;4706;41.844;26.082;2022-07-22T08:34:33;100680.81;;;35.23;34.29
9335;BME280;4706;41.844;26.082;2022-07-22T08:36:59;100676.38;;;35.22;33.90
9335;BME280;4706;41.844;26.082;2022-07-22T08:39:25;100672.75;;;35.31;33.71
9335;BME280;4706;41.844;26.082;2022-07-22T08:41:50;100684.84;;;35.66;33.22
9335;BME280;4706;41.844;26.082;2022-07-22T08:44:16;100676.94;;;35.97;32.68
9335;BME280;4706;41.844;26.082;2022-07-22T08:46:44;100686.53;;;36.13;31.93
9335;BME280;4706;41.844;26.082;2022-07-22T08:49:13;100677.59;;;35.92;31.85
9335;BME280;4706;41.844;26.082;2022-07-22T08:51:38;100679.53;;;36.23;31.47
9335;BME280;4706;41.844;26.082;2022-07-22T08:54:04;100679.06;;;36.61;31.52
9335;BME280;4706;41.844;26.082;2022-07-22T08:56:30;100679.22;;;36.94;30.93
9335;BME280;4706;41.844;26.082;2022-07-22T08:58:55;100680.06;;;37.28;30.64
9335;BME280;4706;41.844;26.082;2022-07-22T09:01:21;100675.84;;;37.38;30.06
9335;BME280;4706;41.844;26.082;2022-07-22T09:03:56;100679.84;;;37.50;29.74
9335;BME280;4706;41.844;26.082;2022-07-22T09:06:24;100645.69;;;37.52;29.52
9335;BME280;4706;41.844;26.082;2022-07-22T09:08:56;100673.41;;;37.88;28.32
9335;BME280;4706;41.844;26.082;2022-07-22T09:11:24;100664.81;;;37.88;28.50
9335;BME280;4706;41.844;26.082;2022-07-22T09:13:51;100672.63;;;37.88;28.13
9335;BME280;4706;41.844;26.082;2022-07-22T09:16:46;100671.03;;;38.11;28.77
9335;BME280;4706;41.844;26.082;2022-07-22T09:19:13;100667.84;;;38.48;28.16
9335;BME280;4706;41.844;26.082;2022-07-22T09:21:42;100664.97;;;38.48;27.60
9335;BME280;4706;41.844;26.082;2022-07-22T09:24:08;100675.44;;;38.75;26.75
9335;BME280;4706;41.844;26.082;2022-07-22T09:26:54;100666.22;;;38.85;26.92
9335;BME280;4706;41.844;26.082;2022-07-22T09:29:20;100669.38;;;39.02;26.14
9335;BME280;4706;41.844;26.082;2022-07-22T09:31:50;100667.19;;;39.27;26.42
9335;BME280;4706;41.844;26.082;2022-07-22T09:34:29;100656.03;;;39.49;25.73
9335;BME280;4706;41.844;26.082;2022-07-22T09:36:57;100652.16;;;39.52;24.75
9335;BME280;4706;41.844;26.082;2022-07-22T09:39:28;100658.25;;;39.40;25.14
9335;BME280;4706;41.844;26.082;2022-07-22T09:42:01;100656.38;;;39.37;25.42
9335;BME280;4706;41.844;26.082;2022-07-22T09:44:27;100647.44;;;39.34;24.53
9335;BME280;4706;41.844;26.082;2022-07-22T09:46:53;100648.19;;;39.50;25.30
9335;BME280;4706;41.844;26.082;2022-07-22T09:49:36;100650.34;;;39.70;23.56
9335;BME280;4706;41.844;26.082;2022-07-22T09:52:05;100652.63;;;39.86;24.61
9335;BME280;4706;41.844;26.082;2022-07-22T09:54:32;100646.59;;;40.04;24.00
9335;BME280;4706;41.844;26.082;2022-07-22T09:56:58;100648.63;;;40.19;23.64
9335;BME280;4706;41.844;26.082;2022-07-22T09:59:24;100645.09;;;40.29;23.97
9335;BME280;4706;41.844;26.082;2022-07-22T10:01:54;100652.03;;;40.43;23.52
9335;BME280;4706;41.844;26.082;2022-07-22T10:04:20;100635.75;;;40.14;23.38
9335;BME280;4706;41.844;26.082;2022-07-22T10:06:48;100638.69;;;39.99;23.85
9335;BME280;4706;41.844;26.082;2022-07-22T10:09:17;100622.81;;;40.10;24.30
9335;BME280;4706;41.844;26.082;2022-07-22T10:11:43;100633.16;;;40.42;23.56
9335;BME280;4706;41.844;26.082;2022-07-22T10:14:14;100630.63;;;40.76;23.37
9335;BME280;4706;41.844;26.082;2022-07-22T10:16:43;100631.97;;;41.07;23.02
9335;BME280;4706;41.844;26.082;2022-07-22T10:19:10;100621.88;;;41.28;22.52
9335;BME280;4706;41.844;26.082;2022-07-22T10:21:36;100617.94;;;41.25;22.35
9335;BME280;4706;41.844;26.082;2022-07-22T10:24:13;100614.72;;;41.18;21.96
9335;BME280;4706;41.844;26.082;2022-07-22T10:26:55;100609.41;;;40.53;22.27
9335;BME280;4706;41.844;26.082;2022-07-22T10:40:31;100590.28;;;39.63;23.72
9335;BME280;4706;41.844;26.082;2022-07-22T10:45:41;100575.16;;;39.68;23.20
9335;BME280;4706;41.844;26.082;2022-07-22T10:48:10;100578.16;;;40.20;22.98
9335;BME280;4706;41.844;26.082;2022-07-22T10:53:13;100574.78;;;41.05;22.22
9335;BME280;4706;41.844;26.082;2022-07-22T10:55:59;100585.28;;;41.45;21.85
9335;BME280;4706;41.844;26.082;2022-07-22T11:01:04;100581.63;;;41.08;22.35
9335;BME280;4706;41.844;26.082;2022-07-22T11:03:31;100567.63;;;41.38;22.63
9335;BME280;4706;41.844;26.082;2022-07-22T11:06:12;100571.75;;;41.68;21.79
9335;BME280;4706;41.844;26.082;2022-07-22T11:08:38;100572.09;;;41.93;21.33
9335;BME280;4706;41.844;26.082;2022-07-22T11:11:04;100576.63;;;42.11;21.12
9335;BME280;4706;41.844;26.082;2022-07-22T11:13:34;100563.03;;;42.34;21.29
9335;BME280;4706;41.844;26.082;2022-07-22T11:16:32;100566.22;;;42.47;20.16
9335;BME280;4706;41.844;26.082;2022-07-22T11:19:02;100554.38;;;42.51;20.69
9335;BME280;4706;41.844;26.082;2022-07-22T11:21:32;100553.84;;;42.63;20.47
9335;BME280;4706;41.844;26.082;2022-07-22T11:24:01;100553.88;;;42.75;20.39
9335;BME280;4706;41.844;26.082;2022-07-22T11:26:42;100556.22;;;42.82;20.34
9335;BME280;4706;41.844;26.082;2022-07-22T11:29:15;100554.91;;;42.88;19.63
9335;BME280;4706;41.844;26.082;2022-07-22T11:31:41;100544.66;;;42.93;20.53
9335;BME280;4706;41.844;26.082;2022-07-22T11:34:09;100541.50;;;42.74;20.06
9335;BME280;4706;41.844;26.082;2022-07-22T11:36:38;100537.56;;;42.72;19.82
9335;BME280;4706;41.844;26.082;2022-07-22T11:39:05;100531.78;;;42.66;19.53
9335;BME280;4706;41.844;26.082;2022-07-22T11:41:31;100537.31;;;42.70;19.81
9335;BME280;4706;41.844;26.082;2022-07-22T11:43:58;100528.88;;;42.88;20.14
9335;BME280;4706;41.844;26.082;2022-07-22T11:46:24;100529.63;;;43.00;19.72
9335;BME280;4706;41.844;26.082;2022-07-22T11:48:52;100517.78;;;43.04;19.28
9335;BME280;4706;41.844;26.082;2022-07-22T11:51:18;100533.56;;;43.20;19.73
9335;BME280;4706;41.844;26.082;2022-07-22T11:53:44;100524.06;;;43.25;19.33
9335;BME280;4706;41.844;26.082;2022-07-22T11:56:11;100530.91;;;43.22;19.09
9335;BME280;4706;41.844;26.082;2022-07-22T11:58:40;100525.69;;;43.14;18.95
9335;BME280;4706;41.844;26.082;2022-07-22T12:01:07;100523.31;;;43.02;18.64
9335;BME280;4706;41.844;26.082;2022-07-22T12:03:35;100527.78;;;42.91;18.40
9335;BME280;4706;41.844;26.082;2022-07-22T12:06:04;100525.97;;;42.83;18.99
9335;BME280;4706;41.844;26.082;2022-07-22T12:08:31;100528.06;;;42.60;18.90
9335;BME280;4706;41.844;26.082;2022-07-22T12:10:58;100525.44;;;42.45;19.48
9335;BME280;4706;41.844;26.082;2022-07-22T12:13:29;100522.00;;;42.35;19.08
9335;BME280;4706;41.844;26.082;2022-07-22T12:15:54;100521.66;;;41.94;18.32
9335;BME280;4706;41.844;26.082;2022-07-22T12:18:22;100495.63;;;41.17;18.69
9335;BME280;4706;41.844;26.082;2022-07-22T12:20:49;100516.19;;;40.56;18.71
9335;BME280;4706;41.844;26.082;2022-07-22T12:23:15;100523.19;;;40.23;19.85
9335;BME280;4706;41.844;26.082;2022-07-22T12:28:16;100523.50;;;40.05;19.12
9335;BME280;4706;41.844;26.082;2022-07-22T12:30:42;100511.84;;;40.14;19.52
9335;BME280;4706;41.844;26.082;2022-07-22T12:33:15;100504.59;;;40.24;19.32
9335;BME280;4706;41.844;26.082;2022-07-22T12:38:25;100510.19;;;40.60;19.34
9335;BME280;4706;41.844;26.082;2022-07-22T12:40:51;100512.63;;;40.72;18.74
9335;BME280;4706;41.844;26.082;2022-07-22T12:43:16;100519.22;;;40.78;19.05
9335;BME280;4706;41.844;26.082;2022-07-22T12:45:42;100510.34;;;40.82;19.01
9335;BME280;4706;41.844;26.082;2022-07-22T12:48:09;100491.66;;;40.72;19.17
9335;BME280;4706;41.844;26.082;2022-07-22T12:50:44;100503.53;;;40.53;18.94
9335;BME280;4706;41.844;26.082;2022-07-22T12:53:18;100499.25;;;40.43;19.39
9335;BME280;4706;41.844;26.082;2022-07-22T12:55:46;100501.41;;;40.48;18.81
9335;BME280;4706;41.844;26.082;2022-07-22T12:58:13;100504.69;;;40.36;18.97
9335;BME280;4706;41.844;26.082;2022-07-22T13:00:42;100498.66;;;40.34;19.56
9335;BME280;4706;41.844;26.082;2022-07-22T13:03:08;100510.69;;;40.32;19.59
9335;BME280;4706;41.844;26.082;2022-07-22T13:05:34;100499.91;;;40.01;19.06
9335;BME280;4706;41.844;26.082;2022-07-22T13:08:01;100509.75;;;39.68;19.51
9335;BME280;4706;41.844;26.082;2022-07-22T13:10:27;100499.59;;;39.52;20.02
9335;BME280;4706;41.844;26.082;2022-07-22T13:12:54;100499.38;;;39.56;19.37
9335;BME280;4706;41.844;26.082;2022-07-22T13:15:20;100496.28;;;39.59;19.47
9335;BME280;4706;41.844;26.082;2022-07-22T13:17:47;100491.75;;;39.73;19.43
9335;BME280;4706;41.844;26.082;2022-07-22T13:20:15;100502.31;;;39.82;20.15
9335;BME280;4706;41.844;26.082;2022-07-22T13:22:45;100489.44;;;39.77;20.18